createdAt,value
2023-05-23T00:01:07.305Z,37.05
2023-05-23T00:03:34.820Z,37.38
2023-05-23T00:06:02.441Z,35.90
2023-05-23T00:08:29.334Z,35.92
2023-05-23T00:10:56.104Z,35.55
2023-05-23T00:13:23.025Z,36.22
2023-05-23T00:15:49.829Z,35.05
2023-05-23T00:18:16.743Z,37.58
2023-05-23T00:20:43.908Z,34.83
2023-05-23T00:23:14.919Z,35.70
2023-05-23T00:25:42.499Z,33.38
2023-05-23T00:28:09.354Z,34.80
2023-05-23T00:30:36.232Z,34.40
2023-05-23T00:33:03.829Z,33.95
2023-05-23T00:35:30.714Z,33.75
2023-05-23T00:37:57.483Z,31.67
2023-05-23T00:40:24.981Z,31.88
2023-05-23T00:42:51.755Z,33.03
2023-05-23T00:45:18.617Z,31.73
2023-05-23T00:47:47.838Z,31.17
2023-05-23T00:50:15.942Z,30.45
2023-05-23T00:52:45.154Z,30.38
2023-05-23T00:55:15.856Z,29.23
2023-05-23T00:57:44.453Z,29.33
2023-05-23T01:00:15.649Z,27.75
2023-05-23T01:02:51.389Z,28.05
2023-05-23T01:05:18.679Z,27.58
2023-05-23T01:07:47.280Z,26.33
2023-05-23T01:10:15.729Z,26.35
2023-05-23T01:12:58.525Z,24.83
2023-05-23T01:15:44.060Z,26.75
2023-05-23T01:18:17.963Z,25.80
2023-05-23T01:20:54.588Z,25.38
2023-05-23T01:24:08.921Z,26.23
2023-05-23T01:26:54.039Z,25.70
2023-05-23T01:29:32.364Z,25.25
2023-05-23T01:32:01.217Z,25.15
2023-05-23T01:34:29.277Z,24.63
2023-05-23T01:36:58.864Z,25.63
2023-05-23T01:39:26.383Z,25.77
2023-05-23T01:41:54.889Z,25.10
2023-05-23T01:44:22.561Z,23.63
2023-05-23T01:46:49.416Z,25.20
2023-05-23T01:49:17.983Z,23.02
2023-05-23T01:51:46.045Z,24.08
2023-05-23T01:54:14.532Z,23.63
2023-05-23T01:56:43.150Z,23.75
2023-05-23T01:59:10.407Z,23.60
2023-05-23T02:01:38.819Z,23.00
2023-05-23T02:04:05.957Z,23.05
2023-05-23T02:06:33.212Z,23.33
2023-05-23T02:09:00.220Z,24.92
2023-05-23T02:11:27.219Z,23.60
2023-05-23T02:13:54.087Z,23.75
2023-05-23T02:16:21.750Z,26.05
2023-05-23T02:18:49.402Z,25.98
2023-05-23T02:21:16.529Z,24.50
2023-05-23T02:23:43.546Z,25.98
2023-05-23T02:26:10.416Z,24.77
2023-05-23T02:28:37.381Z,25.08
2023-05-23T02:31:04.435Z,26.40
2023-05-23T02:33:32.583Z,27.08
2023-05-23T02:36:01.606Z,27.55
2023-05-23T02:38:29.569Z,26.33
2023-05-23T02:40:57.803Z,27.10
2023-05-23T02:43:24.573Z,27.90
2023-05-23T02:45:51.903Z,26.73
2023-05-23T02:48:18.972Z,27.35
2023-05-23T02:50:45.905Z,28.30
2023-05-23T02:53:12.730Z,27.35
2023-05-23T02:55:39.784Z,26.58
2023-05-23T02:58:07.141Z,26.65
2023-05-23T03:00:34.214Z,26.85
2023-05-23T03:03:01.838Z,25.40
2023-05-23T03:05:28.718Z,27.23
2023-05-23T03:07:55.617Z,25.65
2023-05-23T03:10:22.470Z,25.15
2023-05-23T03:12:49.287Z,25.60
2023-05-23T03:15:17.220Z,25.75
2023-05-23T03:17:44.848Z,25.50
2023-05-23T03:20:12.117Z,25.27
2023-05-23T03:22:39.469Z,24.45
2023-05-23T03:25:06.867Z,25.20
2023-05-23T03:27:33.626Z,24.88
2023-05-23T03:30:01.224Z,22.35
2023-05-23T03:32:28.201Z,23.00
2023-05-23T03:34:55.021Z,23.70
2023-05-23T03:37:22.027Z,23.67
2023-05-23T03:39:48.801Z,21.20
2023-05-23T03:42:15.720Z,21.65
2023-05-23T03:44:42.524Z,21.63
2023-05-23T03:47:09.495Z,22.63
2023-05-23T03:52:05.818Z,23.10
2023-05-23T03:54:32.568Z,22.52
2023-05-23T03:56:59.328Z,22.05
2023-05-23T03:59:26.472Z,23.02
2023-05-23T04:01:53.499Z,21.30
2023-05-23T04:04:21.124Z,21.42
2023-05-23T04:06:49.213Z,22.30
2023-05-23T04:09:16.173Z,21.85
2023-05-23T04:11:45.253Z,20.20
2023-05-23T04:14:12.504Z,21.40
2023-05-23T04:16:42.003Z,19.90
2023-05-23T04:21:36.239Z,18.67
2023-05-23T04:24:15.091Z,18.63
2023-05-23T04:26:43.509Z,18.40
2023-05-23T04:29:12.307Z,18.13
2023-05-23T04:31:39.488Z,17.40
2023-05-23T04:34:08.266Z,17.10
2023-05-23T04:36:38.735Z,17.60
2023-05-23T04:41:40.270Z,17.42
2023-05-23T04:44:30.342Z,18.60
2023-05-23T04:47:21.250Z,16.13
2023-05-23T04:50:08.672Z,16.15
2023-05-23T04:52:35.757Z,17.77
2023-05-23T04:55:02.884Z,17.13
2023-05-23T04:57:29.747Z,16.83
2023-05-23T04:59:57.476Z,15.82
2023-05-23T05:02:27.122Z,15.73
2023-05-23T05:04:54.086Z,16.05
2023-05-23T05:07:21.033Z,13.88
2023-05-23T05:09:48.042Z,13.77
2023-05-23T05:12:14.833Z,13.70
2023-05-23T05:14:41.878Z,14.35
2023-05-23T05:17:09.467Z,11.60
2023-05-23T05:19:46.470Z,12.65
2023-05-23T05:22:15.225Z,12.38
2023-05-23T05:24:42.559Z,12.00
2023-05-23T05:27:11.653Z,12.23
2023-05-23T05:29:38.423Z,12.97
2023-05-23T05:32:09.012Z,12.80
2023-05-23T05:34:37.904Z,11.63
2023-05-23T05:37:05.282Z,11.23
2023-05-23T05:39:32.320Z,10.90
2023-05-23T05:42:01.307Z,11.52
2023-05-23T05:44:28.195Z,11.30
2023-05-23T05:46:55.783Z,10.45
2023-05-23T05:49:22.766Z,10.73
2023-05-23T05:51:50.268Z,10.73
2023-05-23T05:54:19.184Z,10.40
2023-05-23T05:56:47.728Z,10.13
2023-05-23T05:59:15.845Z,10.25
2023-05-23T06:01:42.751Z,9.13
2023-05-23T06:04:11.426Z,9.43
2023-05-23T06:06:38.422Z,9.57
2023-05-23T06:09:05.533Z,10.00
2023-05-23T06:11:32.643Z,9.45
2023-05-23T06:14:00.046Z,9.75
2023-05-23T06:16:27.145Z,9.57
2023-05-23T06:18:55.145Z,8.77
2023-05-23T06:21:23.585Z,9.13
2023-05-23T06:23:52.375Z,8.98
2023-05-23T06:26:19.260Z,9.02
2023-05-23T06:28:46.385Z,8.57
2023-05-23T06:31:13.309Z,9.07
2023-05-23T06:33:40.348Z,8.18
2023-05-23T06:36:07.531Z,8.88
2023-05-23T06:38:34.227Z,8.00
2023-05-23T06:41:03.819Z,7.30
2023-05-23T06:43:31.253Z,7.60
2023-05-23T06:46:12.900Z,7.38
2023-05-23T06:48:39.828Z,7.47
2023-05-23T06:51:06.772Z,6.68
2023-05-23T06:53:34.386Z,7.15
2023-05-23T06:56:01.592Z,8.02
2023-05-23T06:58:30.500Z,7.80
2023-05-23T07:01:00.911Z,7.90
2023-05-23T07:03:31.713Z,8.20
2023-05-23T07:06:05.359Z,8.23
2023-05-23T07:08:32.389Z,8.02
2023-05-23T07:11:00.669Z,8.02
2023-05-23T07:13:38.526Z,9.38
2023-05-23T07:16:06.342Z,8.65
2023-05-23T07:18:38.431Z,8.63
2023-05-23T07:23:34.714Z,9.13
2023-05-23T07:26:03.318Z,9.05
2023-05-23T07:28:51.407Z,8.93
2023-05-23T07:31:19.012Z,8.45
2023-05-23T07:33:46.599Z,8.98
2023-05-23T07:36:20.104Z,7.43
2023-05-23T07:38:49.810Z,7.35
2023-05-23T07:41:17.052Z,8.05
2023-05-23T07:43:44.081Z,7.30
2023-05-23T07:46:13.382Z,7.55
2023-05-23T07:48:40.707Z,8.02
2023-05-23T07:51:07.736Z,6.50
2023-05-23T07:53:35.159Z,5.97
2023-05-23T07:56:03.831Z,4.90
2023-05-23T07:58:36.052Z,4.20
2023-05-23T08:01:03.702Z,3.25
2023-05-23T08:03:49.167Z,4.20
2023-05-23T08:06:22.680Z,3.00
2023-05-23T08:08:49.755Z,3.25
2023-05-23T08:11:17.115Z,2.60
2023-05-23T08:13:49.283Z,2.90
2023-05-23T08:16:38.884Z,2.72
2023-05-23T08:19:17.373Z,2.42
2023-05-23T08:21:44.813Z,2.50
2023-05-23T08:24:15.146Z,2.22
2023-05-23T08:26:44.517Z,2.22
2023-05-23T08:29:13.929Z,1.80
2023-05-23T08:31:42.430Z,1.65
2023-05-23T08:34:11.634Z,1.40
2023-05-23T08:36:40.083Z,1.83
2023-05-23T08:39:11.762Z,1.50
2023-05-23T08:42:07.627Z,2.00
2023-05-23T08:44:34.912Z,1.40
2023-05-23T08:47:07.831Z,1.55
2023-05-23T08:49:59.790Z,1.67
2023-05-23T08:52:30.176Z,1.85
2023-05-23T08:55:00.876Z,1.90
2023-05-23T08:57:30.538Z,3.40
2023-05-23T09:00:11.161Z,2.00
2023-05-23T09:02:39.198Z,1.65
2023-05-23T09:05:20.850Z,2.25
2023-05-23T09:07:49.418Z,1.60
2023-05-23T09:10:20.384Z,1.10
2023-05-23T09:12:47.520Z,1.08
2023-05-23T09:15:14.854Z,1.23
2023-05-23T09:17:41.899Z,0.60
2023-05-23T09:20:15.246Z,0.90
2023-05-23T09:22:49.441Z,1.35
2023-05-23T09:25:18.006Z,1.40
2023-05-23T09:27:48.071Z,1.17
2023-05-23T09:30:16.011Z,0.77
2023-05-23T09:32:44.757Z,0.60
2023-05-23T09:35:16.032Z,0.85
2023-05-23T09:37:47.405Z,0.80
2023-05-23T09:40:15.388Z,0.75
2023-05-23T09:42:52.992Z,0.45
2023-05-23T09:45:19.971Z,0.50
2023-05-23T09:47:53.895Z,0.70
2023-05-23T09:50:21.762Z,0.70
2023-05-23T09:52:49.585Z,0.85
2023-05-23T09:55:16.684Z,1.13
2023-05-23T09:57:44.330Z,0.60
2023-05-23T10:00:13.937Z,0.70
2023-05-23T10:03:10.765Z,0.90
2023-05-23T10:05:47.755Z,0.57
2023-05-23T10:08:19.188Z,0.50
2023-05-23T10:11:14.735Z,0.60
2023-05-23T10:13:44.922Z,0.70
2023-05-23T10:16:14.704Z,1.10
2023-05-23T10:18:45.786Z,0.90
2023-05-23T10:21:15.774Z,1.50
2023-05-23T10:23:47.111Z,1.60
2023-05-23T10:26:14.153Z,1.50
2023-05-23T10:28:42.270Z,1.58
2023-05-23T10:31:10.641Z,1.35
2023-05-23T10:33:47.651Z,13.93
2023-05-23T10:36:45.194Z,2.05
2023-05-23T10:39:28.350Z,1.50
2023-05-23T10:42:08.980Z,1.70
2023-05-23T10:44:36.848Z,1.73
2023-05-23T10:47:04.710Z,1.50
2023-05-23T10:49:44.514Z,1.05
2023-05-23T10:52:14.127Z,0.88
2023-05-23T10:54:46.839Z,1.30
2023-05-23T10:57:19.480Z,1.20
2023-05-23T10:59:47.514Z,1.50
2023-05-23T11:02:19.523Z,1.27
2023-05-23T11:04:49.023Z,1.20
2023-05-23T11:07:32.804Z,1.17
2023-05-23T11:10:11.300Z,1.67
2023-05-23T11:12:40.979Z,0.70
2023-05-23T11:15:28.135Z,1.25
2023-05-23T11:17:57.536Z,1.65
2023-05-23T11:23:00.725Z,0.90
2023-05-23T11:25:57.224Z,1.27
2023-05-23T11:28:24.533Z,1.55
2023-05-23T11:30:51.535Z,2.00
2023-05-23T11:33:19.133Z,1.50
2023-05-23T11:35:48.775Z,1.30
2023-05-23T11:38:17.035Z,1.23
2023-05-23T11:40:46.431Z,1.65
2023-05-23T11:43:16.848Z,1.80
2023-05-23T11:45:44.176Z,2.15
2023-05-23T11:48:16.620Z,2.10
2023-05-23T11:50:52.321Z,1.92
2023-05-23T11:53:21.915Z,2.72
2023-05-23T11:55:55.828Z,2.80
2023-05-23T11:58:26.149Z,3.40
2023-05-23T12:00:55.345Z,3.58
2023-05-23T12:03:22.786Z,3.75
2023-05-23T12:05:49.808Z,3.83
2023-05-23T12:08:17.866Z,4.45
2023-05-23T12:10:57.053Z,3.72
2023-05-23T12:13:29.398Z,4.22
2023-05-23T12:16:00.765Z,4.13
2023-05-23T12:18:29.853Z,4.22
2023-05-23T12:21:01.358Z,3.10
2023-05-23T12:23:28.756Z,3.05
2023-05-23T12:25:57.102Z,3.15
2023-05-23T12:28:37.464Z,3.30
2023-05-23T12:31:22.393Z,2.33
2023-05-23T12:33:50.210Z,3.78
2023-05-23T12:36:25.173Z,3.30
2023-05-23T12:38:52.254Z,3.42
2023-05-23T12:41:20.749Z,2.90
2023-05-23T12:43:55.474Z,3.42
2023-05-23T12:46:25.168Z,3.83
2023-05-23T12:48:53.255Z,4.07
2023-05-23T12:51:21.469Z,3.67
2023-05-23T12:53:50.096Z,4.00
2023-05-23T12:56:21.046Z,4.32
2023-05-23T12:58:48.486Z,3.78
2023-05-23T13:01:15.341Z,3.58
2023-05-23T13:03:45.070Z,3.42
2023-05-23T13:06:14.983Z,3.90
2023-05-23T13:08:42.756Z,4.38
2023-05-23T13:11:09.654Z,4.15
2023-05-23T13:13:39.133Z,4.25
2023-05-23T13:16:07.184Z,4.28
2023-05-23T13:18:34.001Z,3.72
2023-05-23T13:21:00.925Z,3.47
2023-05-23T13:23:28.614Z,4.15
2023-05-23T13:25:58.073Z,5.20
2023-05-23T13:28:25.971Z,4.15
2023-05-23T13:30:53.025Z,5.00
2023-05-23T13:33:25.877Z,3.88
2023-05-23T13:35:54.653Z,4.03
2023-05-23T13:38:22.742Z,4.32
2023-05-23T13:40:51.908Z,4.20
2023-05-23T13:43:19.047Z,3.88
2023-05-23T13:45:47.358Z,6.22
2023-05-23T13:48:14.554Z,2.85
2023-05-23T13:50:43.289Z,2.67
2023-05-23T13:53:15.567Z,2.50
2023-05-23T13:55:43.846Z,1.88
2023-05-23T13:58:13.866Z,2.30
2023-05-23T14:00:41.500Z,2.10
2023-05-23T14:03:11.520Z,2.15
2023-05-23T14:05:39.378Z,1.90
2023-05-23T14:08:07.067Z,2.28
2023-05-23T14:10:34.149Z,1.58
2023-05-23T14:13:01.532Z,1.45
2023-05-23T14:15:28.631Z,1.58
2023-05-23T14:17:57.341Z,1.20
2023-05-23T14:20:25.123Z,1.15
2023-05-23T14:22:55.285Z,0.80
2023-05-23T14:25:22.708Z,0.55
2023-05-23T14:27:50.029Z,2.00
2023-05-23T14:30:17.378Z,1.55
2023-05-23T14:32:44.707Z,2.97
2023-05-23T14:35:14.525Z,2.80
2023-05-23T14:37:44.769Z,3.55
2023-05-23T14:40:13.451Z,2.58
2023-05-23T14:42:40.721Z,2.03
2023-05-23T14:45:07.922Z,2.75
2023-05-23T14:47:35.858Z,2.97
2023-05-23T14:50:03.600Z,2.92
2023-05-23T14:52:31.030Z,3.40
2023-05-23T14:54:58.497Z,3.55
2023-05-23T14:57:25.540Z,3.67
2023-05-23T14:59:53.063Z,3.60
2023-05-23T15:02:20.918Z,3.33
2023-05-23T15:04:48.984Z,3.35
2023-05-23T15:07:19.688Z,3.38
2023-05-23T15:09:48.194Z,3.83
2023-05-23T15:12:18.065Z,4.03
2023-05-23T15:14:48.806Z,3.67
2023-05-23T15:17:20.390Z,3.72
2023-05-23T15:19:48.124Z,3.28
2023-05-23T15:22:33.734Z,3.65
2023-05-23T15:25:08.814Z,3.45
2023-05-23T15:27:37.756Z,3.70
2023-05-23T15:30:05.552Z,3.50
2023-05-23T15:32:33.436Z,3.95
2023-05-23T15:35:00.653Z,3.80
2023-05-23T15:37:27.749Z,4.60
2023-05-23T15:39:57.721Z,4.18
2023-05-23T15:42:25.712Z,4.63
2023-05-23T15:44:53.064Z,4.07
2023-05-23T15:47:20.938Z,4.78
2023-05-23T15:49:48.105Z,5.10
2023-05-23T15:52:15.466Z,4.90
2023-05-23T15:54:42.290Z,5.65
2023-05-23T15:57:11.881Z,6.53
2023-05-23T15:59:39.604Z,6.45
2023-05-23T16:02:06.927Z,5.35
2023-05-23T16:04:36.139Z,6.15
2023-05-23T16:07:04.134Z,6.90
2023-05-23T16:09:31.713Z,6.63
2023-05-23T16:11:59.128Z,5.80
2023-05-23T16:14:26.138Z,6.53
2023-05-23T16:16:53.076Z,6.80
2023-05-23T16:19:20.291Z,5.97
2023-05-23T16:24:39.979Z,5.50
2023-05-23T16:27:33.253Z,5.78
2023-05-23T16:30:00.511Z,5.07
2023-05-23T16:32:35.569Z,4.65
2023-05-23T16:35:03.742Z,5.82
2023-05-23T16:37:34.757Z,9.00
2023-05-23T16:40:02.691Z,5.05
2023-05-23T16:42:33.561Z,4.93
2023-05-23T16:45:05.557Z,4.05
2023-05-23T16:47:34.131Z,4.32
2023-05-23T16:50:14.007Z,3.83
2023-05-23T16:52:41.641Z,3.65
2023-05-23T16:55:11.083Z,4.20
2023-05-23T16:57:40.421Z,3.78
2023-05-23T17:00:14.404Z,4.40
2023-05-23T17:02:55.719Z,3.55
2023-05-23T17:05:22.908Z,3.45
2023-05-23T17:07:50.461Z,3.78
2023-05-23T17:10:20.345Z,4.38
2023-05-23T17:12:47.617Z,4.00
2023-05-23T17:15:17.655Z,4.22
2023-05-23T17:17:54.032Z,4.05
2023-05-23T17:20:25.199Z,3.90
2023-05-23T17:22:59.911Z,4.57
2023-05-23T17:25:27.070Z,3.97
2023-05-23T17:27:55.514Z,4.22
2023-05-23T17:30:23.652Z,4.40
2023-05-23T17:35:49.936Z,4.90
2023-05-23T17:38:29.127Z,4.38
2023-05-23T17:41:06.394Z,5.35
2023-05-23T17:43:35.574Z,5.57
2023-05-23T17:46:02.806Z,6.00
2023-05-23T17:48:45.578Z,4.38
2023-05-23T17:51:15.357Z,4.70
2023-05-23T17:53:57.249Z,4.88
2023-05-23T17:56:28.496Z,3.67
2023-05-23T17:58:58.233Z,4.35
2023-05-23T18:01:27.845Z,3.33
2023-05-23T18:03:55.636Z,3.35
2023-05-23T18:06:24.206Z,2.92
2023-05-23T18:09:03.501Z,2.67
2023-05-23T18:11:31.330Z,4.00
2023-05-23T18:14:00.851Z,2.58
2023-05-23T18:16:30.641Z,2.20
2023-05-23T18:19:02.063Z,2.65
2023-05-23T18:21:38.654Z,2.35
2023-05-23T18:24:06.751Z,2.75
2023-05-23T18:26:34.185Z,1.80
2023-05-23T18:29:04.709Z,1.98
2023-05-23T18:31:35.868Z,2.10
2023-05-23T18:34:03.898Z,1.80
2023-05-23T18:36:31.601Z,1.98
2023-05-23T18:38:58.718Z,1.85
2023-05-23T18:41:28.462Z,2.58
2023-05-23T18:43:55.513Z,2.95
2023-05-23T18:46:24.328Z,2.15
2023-05-23T18:48:53.019Z,2.80
2023-05-23T18:51:19.854Z,1.92
2023-05-23T18:53:46.702Z,1.80
2023-05-23T18:56:13.524Z,1.67
2023-05-23T18:58:40.779Z,1.40
2023-05-23T19:01:08.323Z,1.73
2023-05-23T19:03:37.206Z,2.15
2023-05-23T19:06:06.056Z,1.35
2023-05-23T19:08:33.608Z,1.67
2023-05-23T19:11:00.988Z,2.03
2023-05-23T19:13:59.821Z,1.30
2023-05-23T19:19:37.920Z,1.20
2023-05-23T19:22:05.289Z,1.52
2023-05-23T19:24:43.021Z,1.90
2023-05-23T19:27:17.439Z,1.80
2023-05-23T19:29:53.343Z,1.83
2023-05-23T19:32:20.938Z,1.45
2023-05-23T19:34:47.902Z,1.70
2023-05-23T19:37:15.242Z,1.67
2023-05-23T19:39:45.817Z,1.55
2023-05-23T19:42:13.457Z,1.92
2023-05-23T19:44:42.284Z,1.80
2023-05-23T19:47:09.198Z,1.87
2023-05-23T19:49:36.663Z,1.77
2023-05-23T19:52:03.701Z,2.03
2023-05-23T19:54:30.717Z,2.17
2023-05-23T19:56:57.610Z,1.77
2023-05-23T19:59:24.552Z,1.70
2023-05-23T20:01:51.524Z,1.27
2023-05-23T20:04:18.448Z,2.00
2023-05-23T20:06:45.291Z,1.70
2023-05-23T20:09:13.071Z,1.58
2023-05-23T20:11:39.942Z,1.58
2023-05-23T20:14:06.958Z,1.88
2023-05-23T20:16:34.096Z,1.60
2023-05-23T20:19:01.374Z,1.75
2023-05-23T20:21:30.648Z,1.52
2023-05-23T20:23:57.966Z,1.63
2023-05-23T20:26:29.010Z,1.55
2023-05-23T20:28:59.907Z,1.40
2023-05-23T20:31:26.990Z,1.85
2023-05-23T20:33:54.188Z,1.45
2023-05-23T20:36:21.233Z,1.83
2023-05-23T20:38:48.483Z,1.17
2023-05-23T20:41:16.511Z,1.55
2023-05-23T20:43:44.957Z,0.88
2023-05-23T20:46:13.986Z,2.17
2023-05-23T20:48:44.013Z,2.35
2023-05-23T20:51:12.026Z,1.13
2023-05-23T20:53:40.981Z,2.20
2023-05-23T20:56:10.546Z,1.25
2023-05-23T20:58:38.619Z,1.05
2023-05-23T21:01:18.017Z,1.65
2023-05-23T21:03:50.719Z,1.30
2023-05-23T21:06:18.459Z,1.30
2023-05-23T21:08:45.513Z,1.00
2023-05-23T21:11:14.267Z,0.85
2023-05-23T21:13:47.521Z,1.93
2023-05-23T21:16:23.054Z,1.25
2023-05-23T21:18:53.162Z,1.40
2023-05-23T21:21:20.578Z,1.23
2023-05-23T21:23:47.492Z,1.88
2023-05-23T21:26:14.604Z,1.20
2023-05-23T21:28:43.016Z,1.50
2023-05-23T21:31:10.451Z,1.30
2023-05-23T21:33:37.329Z,1.10
2023-05-23T21:36:04.195Z,1.30
2023-05-23T21:38:31.242Z,1.40
2023-05-23T21:40:58.175Z,0.93
2023-05-23T21:43:25.161Z,1.23
2023-05-23T21:45:52.868Z,2.30
2023-05-23T21:48:19.766Z,1.63
2023-05-23T21:50:46.644Z,1.20
2023-05-23T21:53:13.489Z,1.33
2023-05-23T21:55:40.509Z,1.02
2023-05-23T21:58:07.480Z,1.80
2023-05-23T22:00:34.209Z,1.13
2023-05-23T22:03:01.269Z,1.25
2023-05-23T22:05:28.278Z,1.83
2023-05-23T22:07:55.139Z,1.23
2023-05-23T22:10:22.020Z,1.05
2023-05-23T22:12:48.962Z,1.20
2023-05-23T22:15:16.132Z,1.50
2023-05-23T22:17:43.359Z,1.17
2023-05-23T22:20:13.242Z,1.45
2023-05-23T22:22:40.824Z,1.10
2023-05-23T22:25:11.412Z,1.40
2023-05-23T22:27:38.662Z,1.13
2023-05-23T22:30:06.679Z,1.10
2023-05-23T22:32:38.703Z,1.50
2023-05-23T22:35:06.316Z,0.98
2023-05-23T22:37:33.544Z,1.10
2023-05-23T22:40:00.828Z,1.30
2023-05-23T22:42:27.871Z,1.23
2023-05-23T22:44:57.989Z,1.63
2023-05-23T22:47:25.374Z,1.73
2023-05-23T22:49:56.649Z,2.33
2023-05-23T22:52:23.968Z,1.42
2023-05-23T22:54:51.603Z,2.17
2023-05-23T22:57:24.239Z,0.82
2023-05-23T22:59:51.154Z,1.52
2023-05-23T23:02:20.528Z,1.75
2023-05-23T23:04:51.780Z,1.25
2023-05-23T23:07:18.931Z,1.08
2023-05-23T23:09:46.488Z,1.52
2023-05-23T23:12:13.720Z,1.92
2023-05-23T23:14:40.687Z,1.50
2023-05-23T23:17:07.785Z,1.17
2023-05-23T23:19:35.728Z,1.05
2023-05-23T23:22:03.548Z,1.52
2023-05-23T23:24:30.882Z,1.25
2023-05-23T23:26:57.716Z,1.80
2023-05-23T23:29:24.696Z,1.15
2023-05-23T23:31:51.748Z,1.13
2023-05-23T23:34:18.812Z,1.27
2023-05-23T23:36:45.882Z,1.15
2023-05-23T23:39:12.857Z,1.58
2023-05-23T23:41:39.922Z,1.33
2023-05-23T23:44:07.396Z,1.10
2023-05-23T23:46:36.986Z,1.20
2023-05-23T23:49:04.295Z,1.20
2023-05-23T23:51:33.851Z,1.05
2023-05-23T23:56:27.657Z,1.85
2023-05-23T23:58:54.471Z,1.25
